Time;durP1;ratioP1;P1;durP2;ratioP2;P2;SDS_P1;SDS_P2;PMS_P1;PMS_P2;Temp;Humidity;BMP_temperature;BMP_pressure;BME280_temperature;BME280_humidity;BME280_pressure;Samples;Min_cycle;Max_cycle;Signal;HPM_P1;HPM_P2
2021/06/08 00:01:57;;;;;;;12.93;5.93;;;;;;;11.55;53.64;102443.28;5053769;28;20033;-64
2021/06/08 00:04:23;;;;;;;12.35;5.70;;;;;;;11.18;54.94;102450.06;5055511;28;20160;-65
2021/06/08 00:06:50;;;;;;;8.20;5.53;;;;;;;11.20;54.68;102443.03;5057278;28;20048;-63
2021/06/08 00:09:15;;;;;;;10.38;5.10;;;;;;;11.26;54.90;102447.28;5052645;28;20043;-64
2021/06/08 00:11:41;;;;;;;14.25;5.80;;;;;;;11.71;53.17;102449.97;5052904;28;20029;-64
2021/06/08 00:14:06;;;;;;;16.55;6.43;;;;;;;11.73;53.51;102442.94;5054064;28;20036;-65
2021/06/08 00:16:32;;;;;;;14.65;6.15;;;;;;;11.68;53.78;102453.47;5054126;28;20032;-65
2021/06/08 00:18:57;;;;;;;16.60;6.88;;;;;;;11.83;53.77;102443.63;5052578;28;20426;-66
2021/06/08 00:21:23;;;;;;;13.13;6.05;;;;;;;11.92;53.83;102453.06;5053248;28;20033;-67
2021/06/08 00:23:48;;;;;;;13.93;6.50;;;;;;;11.89;54.03;102459.25;5052759;28;20068;-66
2021/06/08 00:26:14;;;;;;;15.68;6.30;;;;;;;12.00;53.34;102456.38;5068772;28;20118;-66
2021/06/08 00:28:39;;;;;;;11.40;5.97;;;;;;;11.43;54.30;102449.63;5053391;28;20128;-66
2021/06/08 00:31:05;;;;;;;9.55;5.47;;;;;;;11.64;53.70;102456.19;5060968;28;20064;-66
2021/06/08 00:33:30;;;;;;;12.75;6.63;;;;;;;11.50;53.83;102450.38;5055230;28;20059;-67
2021/06/08 00:35:56;;;;;;;10.70;5.38;;;;;;;11.78;53.69;102451.59;5054125;28;20043;-67
2021/06/08 00:38:21;;;;;;;14.65;6.53;;;;;;;11.65;54.27;102456.16;5051395;28;20348;-67
2021/06/08 00:40:47;;;;;;;11.02;6.05;;;;;;;11.76;54.05;102447.25;5054505;28;20028;-65
2021/06/08 00:43:12;;;;;;;11.93;6.57;;;;;;;11.86;53.44;102454.03;5050300;28;20032;-66
2021/06/08 00:45:38;;;;;;;12.77;6.25;;;;;;;11.71;53.59;102443.84;5050337;28;20496;-67
2021/06/08 00:48:06;;;;;;;17.80;8.10;;;;;;;11.95;53.37;102442.50;5050952;28;20024;-67
2021/06/08 00:50:31;;;;;;;17.38;8.15;;;;;;;11.59;54.47;102435.31;5052205;28;20053;-65
2021/06/08 00:52:57;;;;;;;17.27;7.97;;;;;;;11.93;53.36;102433.81;5052347;28;20512;-64
2021/06/08 00:55:23;;;;;;;18.88;7.65;;;;;;;11.84;53.94;102441.00;5051940;28;20037;-65
2021/06/08 00:57:50;;;;;;;14.18;6.95;;;;;;;11.99;53.17;102444.19;5054848;28;20094;-65
2021/06/08 01:00:16;;;;;;;11.75;6.63;;;;;;;11.73;53.41;102432.47;5050356;28;20037;-66
2021/06/08 01:02:42;;;;;;;12.90;6.15;;;;;;;11.93;53.21;102433.81;5053393;28;20029;-66
2021/06/08 01:05:09;;;;;;;10.80;6.57;;;;;;;11.70;53.89;102436.88;5052776;28;20083;-67
2021/06/08 01:07:35;;;;;;;11.40;5.10;;;;;;;11.94;53.17;102436.41;5053405;28;20097;-67
2021/06/08 01:10:04;;;;;;;10.85;5.25;;;;;;;11.85;53.22;102432.22;5049967;28;20032;-67
2021/06/08 01:12:29;;;;;;;9.80;5.57;;;;;;;11.71;52.92;102430.75;5051786;28;20512;-68
2021/06/08 01:14:55;;;;;;;9.80;4.97;;;;;;;11.35;54.88;102431.44;5054407;28;20083;-67
2021/06/08 01:17:20;;;;;;;10.07;4.78;;;;;;;11.56;54.54;102429.31;5051846;28;20021;-67
2021/06/08 01:19:47;;;;;;;8.57;5.32;;;;;;;11.71;53.56;102418.53;5052636;28;20387;-67
2021/06/08 01:22:13;;;;;;;10.23;4.35;;;;;;;11.55;53.18;102422.31;5051725;28;20124;-67
2021/06/08 01:24:39;;;;;;;8.73;5.68;;;;;;;11.21;54.70;102433.44;5050688;28;20051;-67
2021/06/08 01:27:06;;;;;;;9.43;4.80;;;;;;;11.43;54.14;102432.13;5051356;28;20079;-67
2021/06/08 01:29:34;;;;;;;8.55;4.72;;;;;;;11.59;53.82;102429.22;5052210;28;20025;-68
2021/06/08 01:32:02;;;;;;;8.35;4.85;;;;;;;11.54;54.08;102431.94;5050196;28;20106;-67
2021/06/08 01:34:27;;;;;;;8.50;4.22;;;;;;;11.56;54.03;102434.53;5053116;28;20067;-67
2021/06/08 01:36:54;;;;;;;7.70;4.35;;;;;;;11.37;54.84;102432.25;5051074;28;20060;-68
2021/06/08 01:39:20;;;;;;;8.35;4.93;;;;;;;11.41;54.98;102435.69;5050099;28;20040;-67
2021/06/08 01:41:46;;;;;;;6.35;4.15;;;;;;;11.58;53.79;102438.00;5047532;28;20486;-66
2021/06/08 01:44:13;;;;;;;6.53;3.67;;;;;;;11.51;54.52;102433.75;5049870;28;20072;-66
2021/06/08 01:46:38;;;;;;;8.65;4.32;;;;;;;11.33;54.70;102435.84;5051370;28;20086;-68
2021/06/08 01:49:04;;;;;;;10.50;4.88;;;;;;;11.52;54.30;102433.72;5049714;28;20032;-66
2021/06/08 01:51:38;;;;;;;10.07;4.45;;;;;;;11.51;54.39;102434.63;5047197;28;20120;-66
2021/06/08 01:54:39;;;;;;;8.38;4.25;;;;;;;11.43;54.57;102434.75;5052480;28;20072;-66
2021/06/08 01:57:13;;;;;;;8.23;4.68;;;;;;;11.24;55.43;102431.63;5042218;28;20045;-66
2021/06/08 01:59:48;;;;;;;7.20;4.40;;;;;;;11.46;54.57;102433.84;5051934;28;20032;-65
2021/06/08 02:02:33;;;;;;;7.18;4.72;;;;;;;11.54;53.78;102434.56;5052089;28;20032;-66
2021/06/08 02:05:16;;;;;;;10.57;4.30;;;;;;;11.37;54.38;102434.88;5049453;28;20029;-65
2021/06/08 02:08:17;;;;;;;9.38;5.50;;;;;;;11.61;53.55;102440.53;5051963;28;20020;-65
2021/06/08 02:10:59;;;;;;;8.43;4.65;;;;;;;11.83;53.12;102436.63;5050378;28;20052;-65
2021/06/08 02:13:34;;;;;;;;;;;;;;;11.67;53.78;102428.19;5051779;28;20032;-64
2021/06/08 02:16:11;;;;;;;10.27;5.15;;;;;;;11.67;53.70;102436.06;5051426;28;19956;-66
2021/06/08 02:18:40;;;;;;;12.68;5.53;;;;;;;11.52;53.07;102441.59;5051598;28;20032;-65
2021/06/08 02:21:09;;;;;;;11.18;5.22;;;;;;;11.55;53.49;102435.41;5068734;28;20836;-65
2021/06/08 02:23:36;;;;;;;10.50;5.53;;;;;;;11.45;53.70;102432.13;5049705;28;20037;-64
2021/06/08 02:26:02;;;;;;;9.77;5.25;;;;;;;11.18;54.04;102443.97;5052420;28;20060;-66
2021/06/08 02:28:31;;;;;;;9.20;5.43;;;;;;;11.22;54.37;102445.63;5051258;28;20350;-64
2021/06/08 02:31:02;;;;;;;8.35;4.93;;;;;;;11.50;53.75;102439.88;5051800;28;20041;-65
2021/06/08 02:33:28;;;;;;;10.65;5.35;;;;;;;11.19;54.19;102437.81;5052688;28;20024;-66
2021/06/08 02:35:55;;;;;;;9.65;5.38;;;;;;;11.48;53.99;102441.66;5049902;28;20467;-70
2021/06/08 02:38:22;;;;;;;8.60;5.75;;;;;;;11.24;53.95;102444.72;5049264;28;20090;-70
2021/06/08 02:40:47;;;;;;;13.38;5.30;;;;;;;11.44;54.19;102439.13;5050435;28;20401;-70
2021/06/08 02:43:13;;;;;;;11.70;6.30;;;;;;;11.50;54.30;102447.75;5052089;28;20036;-70
2021/06/08 02:45:41;;;;;;;14.45;6.43;;;;;;;11.45;54.09;102442.59;5052966;28;20041;-69
2021/06/08 02:48:07;;;;;;;15.50;6.30;;;;;;;11.29;54.60;102444.63;5051550;28;20257;-68
2021/06/08 02:50:33;;;;;;;12.82;6.97;;;;;;;11.37;54.47;102437.47;5048682;28;20075;-69
2021/06/08 02:53:00;;;;;;;13.60;7.13;;;;;;;11.63;54.58;102436.16;5049850;28;20056;-70
2021/06/08 02:55:27;;;;;;;12.57;6.15;;;;;;;11.68;54.35;102431.66;5057636;28;20089;-69
2021/06/08 02:57:54;;;;;;;11.65;6.68;;;;;;;11.55;53.98;102438.03;5053115;28;20070;-71
2021/06/08 03:00:21;;;;;;;28.42;5.90;;;;;;;11.54;53.50;102441.56;5050100;28;20147;-70
2021/06/08 03:02:52;;;;;;;18.38;7.80;;;;;;;11.17;55.06;102437.88;5051561;28;20512;-70
2021/06/08 03:05:37;;;;;;;15.35;6.07;;;;;;;11.58;54.51;102443.22;5048846;28;20126;-72
2021/06/08 03:08:08;;;;;;;12.07;6.60;;;;;;;11.51;54.43;102441.59;5051526;28;20033;-67
2021/06/08 03:10:35;;;;;;;14.40;5.93;;;;;;;11.48;53.77;102439.06;5050419;28;20063;-66
2021/06/08 03:13:02;;;;;;;11.55;5.85;;;;;;;11.52;54.14;102438.09;5050180;28;20032;-67
2021/06/08 03:15:31;;;;;;;15.60;6.57;;;;;;;11.47;54.15;102440.81;5057338;28;20206;-66
2021/06/08 03:17:57;;;;;;;11.63;5.95;;;;;;;11.61;54.71;102437.94;5058203;28;20136;-66
2021/06/08 03:20:38;;;;;;;11.52;5.15;;;;;;;11.81;54.38;102435.78;5042501;28;20112;-66
2021/06/08 03:23:08;;;;;;;11.10;5.57;;;;;;;11.79;53.54;102429.72;5066027;28;20044;-67
2021/06/08 03:25:35;;;;;;;13.18;6.45;;;;;;;11.87;53.86;102440.06;5050281;28;20037;-66
2021/06/08 03:28:02;;;;;;;9.02;5.05;;;;;;;11.42;54.42;102437.44;5053173;28;20109;-65
2021/06/08 03:30:29;;;;;;;8.30;4.65;;;;;;;11.46;54.35;102439.06;5050882;28;20029;-66
2021/06/08 03:32:56;;;;;;;11.93;5.63;;;;;;;11.71;53.07;102434.25;5047402;28;20055;-68
2021/06/08 03:35:24;;;;;;;12.07;5.47;;;;;;;11.44;54.15;102441.75;5051803;28;20029;-69
2021/06/08 03:37:52;;;;;;;7.78;4.22;;;;;;;11.65;53.46;102439.59;5055197;28;20506;-69
2021/06/08 03:40:19;;;;;;;8.88;4.65;;;;;;;11.62;53.46;102430.03;5038236;28;20032;-69
2021/06/08 03:42:46;;;;;;;16.15;5.90;;;;;;;11.66;53.57;102431.72;5053477;28;20041;-67
2021/06/08 03:45:13;;;;;;;10.63;5.45;;;;;;;11.81;53.39;102435.78;5052809;28;20032;-69
2021/06/08 03:47:41;;;;;;;7.65;4.60;;;;;;;11.87;53.44;102430.44;5052713;28;20301;-68
2021/06/08 03:50:08;;;;;;;16.58;5.50;;;;;;;11.72;52.50;102424.63;5054261;28;20048;-67
2021/06/08 03:52:33;;;;;;;7.68;5.22;;;;;;;11.30;54.30;102429.78;5050586;28;20508;-67
2021/06/08 03:54:59;;;;;;;8.88;5.57;;;;;;;11.73;52.61;102436.81;5055152;28;20037;-67
2021/06/08 03:57:28;;;;;;;9.77;5.50;;;;;;;11.64;53.27;102427.38;5052937;28;20032;-66
2021/06/08 03:59:56;;;;;;;12.13;7.45;;;;;;;11.68;53.19;102431.66;5063416;28;20124;-66
2021/06/08 04:02:22;;;;;;;16.85;7.63;;;;;;;11.66;53.51;102431.72;5053305;28;20399;-68
2021/06/08 04:04:48;;;;;;;12.00;7.28;;;;;;;11.64;53.84;102430.00;5053180;28;20039;-66
2021/06/08 04:07:14;;;;;;;18.95;8.35;;;;;;;11.64;53.32;102432.63;5055661;28;20540;-67
2021/06/08 04:09:39;;;;;;;19.40;9.00;;;;;;;11.78;53.15;102430.63;5056485;28;20119;-66
2021/06/08 04:12:05;;;;;;;16.17;7.63;;;;;;;11.80;52.52;102428.84;5055372;28;20366;-68
2021/06/08 04:14:32;;;;;;;20.67;7.28;;;;;;;11.88;53.18;102426.91;5052059;28;20061;-67
2021/06/08 04:16:58;;;;;;;17.35;8.43;;;;;;;11.78;52.71;102429.78;5054601;28;20064;-64
2021/06/08 04:19:23;;;;;;;18.60;7.80;;;;;;;11.52;53.41;102438.97;5054411;28;20035;-64
2021/06/08 04:21:51;;;;;;;15.57;7.63;;;;;;;11.85;52.38;102426.13;5054214;28;20041;-65
2021/06/08 04:24:17;;;;;;;15.00;7.18;;;;;;;12.03;52.62;102436.22;5054224;28;20037;-65
2021/06/08 04:26:42;;;;;;;14.93;8.38;;;;;;;11.94;52.46;102436.41;5053688;28;20035;-65
2021/06/08 04:29:08;;;;;;;15.15;8.60;;;;;;;11.94;53.17;102435.56;5048523;28;20401;-66
2021/06/08 04:31:34;;;;;;;14.35;8.93;;;;;;;11.86;53.23;102431.31;5050647;28;20059;-66
2021/06/08 04:34:00;;;;;;;17.10;9.07;;;;;;;12.00;53.31;102431.06;5051303;28;20162;-69
2021/06/08 04:36:25;;;;;;;17.15;10.07;;;;;;;12.13;52.77;102434.25;5050731;28;20453;-68
2021/06/08 04:38:53;;;;;;;18.67;9.30;;;;;;;12.07;53.09;102429.16;5062579;28;20036;-66
2021/06/08 04:41:19;;;;;;;18.42;9.68;;;;;;;12.03;52.67;102427.50;5051550;28;20168;-66
2021/06/08 04:43:45;;;;;;;15.90;8.55;;;;;;;12.21;52.49;102427.09;5051888;28;20052;-67
2021/06/08 04:46:14;;;;;;;15.68;9.57;;;;;;;12.34;51.78;102430.31;5050923;28;20501;-66
2021/06/08 04:48:42;;;;;;;17.95;10.05;;;;;;;12.22;52.12;102436.69;5054500;28;20320;-67
2021/06/08 04:51:08;;;;;;;15.10;8.43;;;;;;;12.57;51.71;102437.63;5052608;28;20121;-67
2021/06/08 04:53:35;;;;;;;12.00;9.15;;;;;;;12.64;50.85;102446.22;5052806;28;20044;-68
2021/06/08 04:56:00;;;;;;;14.15;8.63;;;;;;;12.32;51.40;102447.81;5052159;28;20036;-68
2021/06/08 04:58:26;;;;;;;11.20;7.97;;;;;;;12.37;51.00;102439.84;5054908;28;20039;-68
2021/06/08 05:01:09;;;;;;;18.73;9.32;;;;;;;12.34;51.05;102447.81;5052445;28;20045;-70
2021/06/08 05:03:40;;;;;;;15.02;9.55;;;;;;;12.38;50.97;102442.47;5068625;28;20090;-70
2021/06/08 05:06:10;;;;;;;15.98;10.52;;;;;;;12.40;50.32;102437.16;5050574;28;20312;-64
2021/06/08 05:08:40;;;;;;;21.20;10.05;;;;;;;12.41;50.73;102437.13;5060727;28;20114;-63
2021/06/08 05:11:30;;;;;;;21.85;10.40;;;;;;;12.54;51.36;102437.72;5052710;28;20090;-65
2021/06/08 05:13:56;;;;;;;17.40;11.10;;;;;;;12.70;50.79;102433.84;5053270;28;20028;-66
2021/06/08 05:16:23;;;;;;;21.58;11.52;;;;;;;12.62;50.86;102430.50;5059429;28;20029;-63
2021/06/08 05:18:53;;;;;;;18.67;11.15;;;;;;;12.54;51.29;102431.63;5054118;28;20589;-64
2021/06/08 05:21:21;;;;;;;17.42;10.77;;;;;;;12.89;49.14;102430.75;5064548;28;20025;-67
2021/06/08 05:23:51;;;;;;;15.75;9.80;;;;;;;12.80;49.54;102428.38;5067689;28;20033;-63
2021/06/08 05:26:17;;;;;;;14.52;9.23;;;;;;;12.76;49.63;102442.47;5052382;28;20453;-65
2021/06/08 05:28:44;;;;;;;15.40;10.52;;;;;;;12.84;49.22;102437.91;5051236;28;20039;-69
2021/06/08 05:31:09;;;;;;;14.20;9.68;;;;;;;12.76;50.20;102429.34;5051130;28;20039;-67
2021/06/08 05:33:35;;;;;;;15.60;9.38;;;;;;;12.77;50.13;102433.72;5052715;28;20032;-68
2021/06/08 05:36:00;;;;;;;11.25;8.07;;;;;;;12.67;50.30;102439.16;5050862;28;20021;-64
2021/06/08 05:38:31;;;;;;;13.60;8.52;;;;;;;12.75;49.91;102431.13;5053502;28;20472;-66
2021/06/08 05:41:01;;;;;;;14.00;9.30;;;;;;;12.76;51.11;102438.09;5052291;28;20036;-65
2021/06/08 05:43:27;;;;;;;14.77;10.40;;;;;;;12.89;49.61;102439.53;5055376;28;20272;-67
2021/06/08 05:45:53;;;;;;;15.38;9.77;;;;;;;12.99;49.81;102434.91;5054731;28;20055;-64
2021/06/08 05:48:23;;;;;;;13.52;9.07;;;;;;;13.06;49.67;102436.44;5048383;28;20111;-66
2021/06/08 05:50:48;;;;;;;10.82;8.25;;;;;;;13.42;49.08;102433.75;5048162;28;20067;-64
2021/06/08 05:53:17;;;;;;;10.63;7.38;;;;;;;13.69;49.22;102433.94;5050676;28;20123;-65
2021/06/08 05:55:47;;;;;;;10.20;7.72;;;;;;;14.24;47.56;102437.56;5051277;28;20089;-65
2021/06/08 05:58:13;;;;;;;10.02;6.45;;;;;;;14.79;45.76;102450.78;5050631;28;20394;-65
2021/06/08 06:00:39;;;;;;;6.40;4.78;;;;;;;15.69;44.50;102451.19;5048264;28;20040;-65
2021/06/08 06:03:05;;;;;;;7.97;5.78;;;;;;;16.08;42.43;102448.84;5055202;28;20040;-66
2021/06/08 06:05:32;;;;;;;8.48;6.13;;;;;;;15.28;42.68;102456.16;5053743;28;20146;-65
2021/06/08 06:08:01;;;;;;;6.25;4.55;;;;;;;15.33;44.24;102456.88;5052412;28;20407;-63
2021/06/08 06:10:26;;;;;;;6.15;5.03;;;;;;;15.13;43.84;102453.13;5058476;28;20446;-66
2021/06/08 06:12:52;;;;;;;7.07;5.75;;;;;;;15.09;44.53;102459.41;5053168;28;20064;-66
2021/06/08 06:15:19;;;;;;;8.70;4.72;;;;;;;15.95;42.51;102451.09;5051184;28;20067;-65
2021/06/08 06:17:46;;;;;;;6.47;4.53;;;;;;;17.18;41.57;102453.22;5049110;28;20056;-65
2021/06/08 06:20:14;;;;;;;6.45;5.30;;;;;;;19.19;37.13;102449.09;5052204;28;20507;-65
2021/06/08 06:22:41;;;;;;;5.88;4.40;;;;;;;20.60;33.42;102447.66;5051874;28;20086;-64
2021/06/08 06:25:10;;;;;;;5.88;4.90;;;;;;;21.21;31.69;102446.66;5049649;28;20044;-65
2021/06/08 06:27:38;;;;;;;7.38;4.32;;;;;;;21.18;31.54;102454.84;5050680;28;20028;-64
2021/06/08 06:30:05;;;;;;;4.40;4.00;;;;;;;19.66;35.22;102455.50;5051414;28;20036;-64
2021/06/08 06:32:31;;;;;;;5.38;4.28;;;;;;;18.50;36.28;102452.53;5053298;28;20037;-66
2021/06/08 06:34:57;;;;;;;7.60;4.97;;;;;;;17.72;39.34;102450.91;5050757;28;20459;-66
2021/06/08 06:37:26;;;;;;;6.50;4.13;;;;;;;17.85;38.42;102460.00;5050036;28;20044;-65
2021/06/08 06:39:56;;;;;;;5.90;3.95;;;;;;;17.80;37.79;102456.69;5053773;28;20033;-65
2021/06/08 06:42:27;;;;;;;5.30;4.22;;;;;;;17.50;39.24;102459.78;5051876;28;20029;-65
2021/06/08 06:44:54;;;;;;;5.87;3.63;;;;;;;17.68;38.63;102466.03;5048069;28;20036;-65
2021/06/08 06:47:19;;;;;;;5.88;4.82;;;;;;;17.79;38.12;102465.56;5050882;28;20182;-64
2021/06/08 06:49:45;;;;;;;6.43;4.68;;;;;;;17.45;39.49;102477.63;5050449;28;20148;-65
2021/06/08 06:52:12;;;;;;;5.45;4.95;;;;;;;17.89;38.42;102469.47;5052047;28;20032;-66
2021/06/08 06:54:38;;;;;;;5.28;4.28;;;;;;;17.42;39.56;102468.00;5050707;28;20124;-65
2021/06/08 06:57:04;;;;;;;9.45;5.10;;;;;;;17.28;40.57;102469.56;5049550;28;20057;-65
2021/06/08 06:59:32;;;;;;;7.47;4.15;;;;;;;16.66;41.07;102472.06;5049616;28;20040;-65
2021/06/08 07:01:58;;;;;;;6.35;3.90;;;;;;;16.31;41.80;102474.34;5050483;28;20060;-64
2021/06/08 07:04:25;;;;;;;9.55;4.40;;;;;;;16.41;41.44;102475.69;5052909;28;20410;-65
2021/06/08 07:06:54;;;;;;;7.68;3.90;;;;;;;16.35;41.85;102475.09;5052576;28;20044;-66
2021/06/08 07:09:24;;;;;;;4.85;3.80;;;;;;;16.93;41.21;102475.41;5051926;28;20182;-65
2021/06/08 07:11:52;;;;;;;4.30;3.90;;;;;;;17.62;39.25;102472.44;5051764;28;20037;-65
2021/06/08 07:14:19;;;;;;;6.35;3.78;;;;;;;18.26;38.13;102475.75;5051719;28;21600;-65
2021/06/08 07:16:46;;;;;;;5.72;3.63;;;;;;;18.21;37.45;102470.66;5053247;28;20071;-65
2021/06/08 07:19:14;;;;;;;6.07;3.83;;;;;;;19.41;36.03;102469.16;5055456;28;20041;-65
2021/06/08 07:21:42;;;;;;;6.68;3.72;;;;;;;21.27;33.24;102467.56;5053501;28;20537;-66
2021/06/08 07:24:09;;;;;;;5.38;3.22;;;;;;;23.89;28.89;102474.41;5048389;28;20043;-65
2021/06/08 07:26:36;;;;;;;4.75;3.08;;;;;;;25.14;25.71;102468.69;5048734;28;20408;-66
2021/06/08 07:29:03;;;;;;;4.85;3.28;;;;;;;26.60;25.15;102467.69;5049315;28;20627;-66
2021/06/08 07:31:46;;;;;;;6.15;3.33;;;;;;;26.92;23.88;102464.97;5051397;28;20047;-68
2021/06/08 07:34:22;;;;;;;6.82;5.03;;;;;;;25.34;25.13;102465.28;5050537;28;20037;-66
2021/06/08 07:36:48;;;;;;;5.13;3.83;;;;;;;25.70;25.62;102459.84;5050404;28;20028;-67
2021/06/08 07:39:21;;;;;;;4.20;3.47;;;;;;;27.00;24.45;102467.81;5049790;28;20037;-67
2021/06/08 07:42:11;;;;;;;4.75;3.55;;;;;;;27.05;23.90;102465.59;5051375;28;20867;-64
2021/06/08 07:44:48;;;;;;;7.53;4.43;;;;;;;26.78;24.22;102468.81;5044788;28;20497;-66
2021/06/08 07:47:17;;;;;;;3.40;3.10;;;;;;;27.96;22.82;102463.03;5049719;28;20460;-65
2021/06/08 07:49:44;;;;;;;4.93;3.72;;;;;;;27.88;21.86;102470.94;5047703;28;20045;-66
2021/06/08 07:52:10;;;;;;;3.05;2.75;;;;;;;27.88;22.24;102469.09;5050119;28;20098;-66
2021/06/08 07:54:37;;;;;;;4.20;3.03;;;;;;;27.71;23.28;102464.38;5048230;28;20509;-65
2021/06/08 07:57:05;;;;;;;8.88;3.92;;;;;;;27.00;23.40;102467.81;5050975;28;20028;-66
2021/06/08 07:59:30;;;;;;;5.07;2.80;;;;;;;27.78;23.19;102462.00;5048975;28;20038;-66
2021/06/08 08:01:56;;;;;;;3.65;3.13;;;;;;;27.44;23.32;102454.22;5053003;28;20412;-66
2021/06/08 08:04:23;;;;;;;6.05;3.60;;;;;;;25.55;25.87;102461.91;5033058;28;20246;-65
2021/06/08 08:06:53;;;;;;;4.50;3.88;;;;;;;26.33;24.79;102460.09;5049193;28;20042;-66
2021/06/08 08:09:19;;;;;;;7.55;3.42;;;;;;;26.56;24.97;102461.72;5047929;28;20029;-65
2021/06/08 08:11:46;;;;;;;3.53;3.13;;;;;;;27.51;23.75;102461.59;5046315;28;21205;-65
2021/06/08 08:14:14;;;;;;;5.32;3.58;;;;;;;28.23;22.68;102462.38;5047856;28;20037;-66
2021/06/08 08:16:50;;;;;;;4.57;3.80;;;;;;;28.16;22.65;102468.47;5045804;28;20116;-66
2021/06/08 08:19:17;;;;;;;7.90;4.18;;;;;;;26.61;24.10;102464.88;5049244;28;20041;-66
2021/06/08 08:21:43;;;;;;;3.55;3.25;;;;;;;27.14;23.98;102471.16;5051036;28;20081;-65
2021/06/08 08:24:09;;;;;;;8.45;4.22;;;;;;;27.38;23.64;102466.34;5050179;28;20234;-63
2021/06/08 08:26:36;;;;;;;4.85;3.38;;;;;;;27.61;23.89;102460.78;5051998;28;20036;-66
2021/06/08 08:29:03;;;;;;;5.43;3.97;;;;;;;28.37;22.59;102455.75;5051027;28;20119;-65
2021/06/08 08:31:30;;;;;;;4.90;3.75;;;;;;;28.07;22.49;102457.53;5047764;28;20112;-65
2021/06/08 08:33:57;;;;;;;4.93;4.10;;;;;;;29.68;20.81;102448.78;5054425;28;20040;-66
2021/06/08 08:36:26;;;;;;;5.28;3.45;;;;;;;30.09;20.69;102447.41;5049908;28;20111;-65
2021/06/08 08:38:52;;;;;;;4.70;4.28;;;;;;;30.18;19.92;102456.44;5052923;28;20152;-67
2021/06/08 08:41:18;;;;;;;3.80;3.42;;;;;;;29.25;21.64;102458.34;5050826;28;20123;-66
2021/06/08 08:43:45;;;;;;;5.47;4.72;;;;;;;28.11;22.44;102458.09;5051684;28;20422;-66
2021/06/08 08:46:11;;;;;;;5.68;5.25;;;;;;;26.97;23.90;102454.69;5049551;28;20037;-65
2021/06/08 08:48:39;;;;;;;5.40;4.10;;;;;;;28.19;22.81;102443.97;5050816;28;20040;-66
2021/06/08 08:51:05;;;;;;;5.15;4.63;;;;;;;28.44;22.06;102442.59;5048237;28;20515;-66
2021/06/08 08:53:31;;;;;;;7.35;4.80;;;;;;;29.18;21.58;102446.47;5065667;28;20067;-65
2021/06/08 08:55:57;;;;;;;6.28;4.30;;;;;;;28.99;21.62;102442.78;5052573;28;20032;-65
2021/06/08 08:58:24;;;;;;;5.30;4.80;;;;;;;28.90;21.34;102438.28;5050782;28;20626;-64
2021/06/08 09:00:50;;;;;;;6.20;4.82;;;;;;;29.35;20.72;102435.75;5049002;28;20036;-66
2021/06/08 09:03:18;;;;;;;5.75;3.80;;;;;;;29.81;21.63;102433.09;5053150;28;20064;-67
2021/06/08 09:05:44;;;;;;;5.82;5.05;;;;;;;28.96;22.25;102435.03;5048844;28;20091;-66
2021/06/08 09:08:10;;;;;;;4.22;3.55;;;;;;;29.77;20.31;102437.97;5050448;28;20043;-66
2021/06/08 09:10:38;;;;;;;4.72;4.32;;;;;;;29.36;21.48;102433.91;5050030;28;20037;-65
2021/06/08 09:13:04;;;;;;;6.68;5.07;;;;;;;28.61;23.00;102436.47;5053142;28;20108;-66
2021/06/08 09:15:30;;;;;;;6.22;5.68;;;;;;;28.86;21.05;102432.38;5049448;28;20337;-65
2021/06/08 09:17:57;;;;;;;6.68;5.40;;;;;;;28.47;22.68;102431.53;5050880;28;20040;-64
2021/06/08 09:20:24;;;;;;;5.63;5.13;;;;;;;28.70;22.85;102427.59;5048577;28;20554;-65
2021/06/08 09:23:01;;;;;;;12.50;9.25;;;;;;;28.13;22.72;102430.13;5048523;28;20044;-64
2021/06/08 09:25:36;;;;;;;6.10;5.55;;;;;;;28.47;22.69;102431.53;5049972;28;20028;-66
2021/06/08 09:28:25;;;;;;;6.22;5.68;;;;;;;27.39;23.74;102430.47;5049015;28;20033;-65
2021/06/08 09:31:01;;;;;;;6.43;5.80;;;;;;;27.91;23.41;102436.56;5050620;28;20049;-66
2021/06/08 09:33:28;;;;;;;6.22;5.47;;;;;;;27.93;23.69;102439.13;5035181;28;20596;-65
2021/06/08 09:36:02;;;;;;;5.97;5.47;;;;;;;26.82;24.57;102439.88;5050817;28;20389;-65
2021/06/08 09:38:51;;;;;;;6.97;5.90;;;;;;;26.32;25.74;102435.13;5050571;28;20036;-65
2021/06/08 09:41:23;;;;;;;6.03;5.38;;;;;;;25.69;27.18;102432.22;5046419;28;20127;-65
2021/06/08 09:43:52;;;;;;;6.82;6.13;;;;;;;25.08;26.64;102431.69;5051284;28;20511;-64
2021/06/08 09:46:19;;;;;;;7.32;5.70;;;;;;;24.57;28.70;102427.53;5049014;28;20122;-65
2021/06/08 09:48:55;;;;;;;6.78;5.25;;;;;;;24.00;29.66;102434.41;5056383;28;20128;-66
2021/06/08 09:51:22;;;;;;;6.93;6.22;;;;;;;24.16;29.62;102429.66;5049833;28;20080;-64
2021/06/08 09:53:48;;;;;;;5.28;4.55;;;;;;;24.48;28.05;102436.25;5049857;28;20028;-65
2021/06/08 09:56:14;;;;;;;5.20;4.70;;;;;;;24.30;28.37;102439.31;5052929;28;20490;-65
2021/06/08 09:58:45;;;;;;;7.00;4.95;;;;;;;24.87;28.17;102435.03;5051059;28;20029;-64
2021/06/08 10:01:23;;;;;;;12.43;5.00;;;;;;;24.79;28.49;102432.94;5051024;28;20049;-66
2021/06/08 10:03:52;;;;;;;5.93;5.10;;;;;;;24.70;28.31;102430.13;5052852;28;20029;-65
2021/06/08 10:06:27;;;;;;;6.18;5.50;;;;;;;24.93;27.69;102421.22;5049139;28;20537;-65
2021/06/08 10:08:56;;;;;;;7.55;5.70;;;;;;;24.30;28.61;102419.75;5061179;28;20028;-65
2021/06/08 10:11:30;;;;;;;6.18;4.78;;;;;;;24.58;28.63;102424.75;5050694;28;20115;-65
2021/06/08 10:14:09;;;;;;;9.82;5.13;;;;;;;24.23;29.73;102420.19;5053567;28;20055;-66
2021/06/08 10:16:35;;;;;;;7.25;6.22;;;;;;;24.39;28.94;102424.41;5051763;28;20641;-67
2021/06/08 10:19:02;;;;;;;7.90;6.38;;;;;;;25.10;26.86;102414.56;5051108;28;20043;-65
2021/06/08 10:21:47;;;;;;;8.45;6.07;;;;;;;25.03;28.24;102414.19;5048476;28;20272;-66
2021/06/08 10:24:22;;;;;;;7.70;6.30;;;;;;;24.77;28.53;102412.66;5050829;28;20475;-66
2021/06/08 10:26:51;;;;;;;7.90;6.07;;;;;;;24.15;30.02;102417.28;5065999;28;20127;-68
2021/06/08 10:29:19;;;;;;;9.55;6.82;;;;;;;24.61;29.05;102416.50;5049993;28;20029;-66
2021/06/08 10:31:45;;;;;;;9.25;6.40;;;;;;;24.77;28.09;102420.66;5045167;28;20025;-65
2021/06/08 10:34:12;;;;;;;9.45;6.50;;;;;;;24.41;29.77;102417.13;5067802;28;20091;-66
2021/06/08 10:36:40;;;;;;;6.75;6.10;;;;;;;24.39;30.54;102414.59;5050183;28;20406;-66
2021/06/08 10:39:11;;;;;;;6.55;5.50;;;;;;;24.76;29.72;102416.31;5050387;28;20048;-64
2021/06/08 10:41:39;;;;;;;9.27;6.15;;;;;;;25.05;29.25;102422.94;5048730;28;20032;-66
2021/06/08 10:44:16;;;;;;;6.45;5.80;;;;;;;25.21;30.07;102411.03;5050891;28;20041;-65
2021/06/08 10:46:48;;;;;;;9.32;6.32;;;;;;;24.53;29.19;102407.38;5051366;28;20882;-65
2021/06/08 10:49:14;;;;;;;7.80;6.75;;;;;;;24.33;29.82;102414.19;5050137;28;20073;-65
2021/06/08 10:52:07;;;;;;;9.25;6.15;;;;;;;24.53;29.69;102408.22;5050119;28;20044;-66
2021/06/08 10:54:38;;;;;;;7.68;6.65;;;;;;;24.61;30.06;102413.81;5050524;28;20032;-66
2021/06/08 10:57:11;;;;;;;10.75;6.53;;;;;;;24.35;29.35;102407.78;5052528;28;20606;-65
2021/06/08 10:59:39;;;;;;;10.32;6.28;;;;;;;25.33;27.73;102420.78;5050208;28;20119;-64
2021/06/08 11:02:05;;;;;;;10.35;7.32;;;;;;;25.21;27.96;102414.56;5051006;28;20707;-65
2021/06/08 11:04:51;;;;;;;10.88;7.13;;;;;;;25.07;29.00;102411.28;5050638;28;20024;-65
2021/06/08 11:07:42;;;;;;;8.60;6.93;;;;;;;24.65;29.54;102409.94;5050208;28;20037;-65
2021/06/08 11:10:26;;;;;;;10.80;8.23;;;;;;;24.75;28.58;102414.59;5051647;28;20108;-66
2021/06/08 11:13:07;;;;;;;9.63;8.43;;;;;;;24.80;28.34;102409.75;5050598;28;20447;-65
2021/06/08 11:15:33;;;;;;;11.77;7.90;;;;;;;24.79;30.13;102405.38;5049931;28;20502;-67
2021/06/08 11:17:58;;;;;;;12.57;7.88;;;;;;;24.84;30.33;102408.56;5049157;28;20064;-65
2021/06/08 11:20:27;;;;;;;11.45;8.75;;;;;;;24.54;29.39;102401.91;5052343;28;20079;-66
2021/06/08 11:22:58;;;;;;;11.95;8.15;;;;;;;24.06;31.00;102411.72;5050710;28;20090;-66
2021/06/08 11:25:35;;;;;;;9.73;7.60;;;;;;;24.54;29.87;102407.25;5058987;28;20036;-65
2021/06/08 11:28:06;;;;;;;10.27;7.65;;;;;;;24.89;27.65;102406.38;5049464;28;20530;-65
2021/06/08 11:30:35;;;;;;;12.20;7.40;;;;;;;24.89;28.63;102408.19;5047599;28;20102;-65